sensor_id;sensor_type;location;lat;lon;timestamp;pressure;altitude;pressure_sealevel;temperature;humidity
73103;BME280;61294;65.988;29.172;2023-07-08T00:00:48;98535.91;;;10.73;92.10
73103;BME280;61294;65.988;29.172;2023-07-08T00:03:15;98577.03;;;10.93;91.75
73103;BME280;61294;65.988;29.172;2023-07-08T00:05:41;98557.81;;;10.77;92.66
73103;BME280;61294;65.988;29.172;2023-07-08T00:08:15;98545.47;;;10.83;92.05
73103;BME280;61294;65.988;29.172;2023-07-08T00:10:43;98557.72;;;10.92;91.92
73103;BME280;61294;65.988;29.172;2023-07-08T00:13:13;98539.44;;;10.64;92.32
73103;BME280;61294;65.988;29.172;2023-07-08T00:18:44;98520.22;;;10.51;93.01
73103;BME280;61294;65.988;29.172;2023-07-08T00:21:12;98543.91;;;10.56;93.77
73103;BME280;61294;65.988;29.172;2023-07-08T00:23:44;98532.53;;;10.51;93.65
73103;BME280;61294;65.988;29.172;2023-07-08T00:26:23;98524.69;;;10.39;93.86
73103;BME280;61294;65.988;29.172;2023-07-08T00:28:52;98566.69;;;10.60;94.88
73103;BME280;61294;65.988;29.172;2023-07-08T00:31:25;98527.25;;;10.52;94.86
73103;BME280;61294;65.988;29.172;2023-07-08T00:33:55;98542.19;;;10.46;94.46
73103;BME280;61294;65.988;29.172;2023-07-08T00:36:22;98530.84;;;10.36;94.58
73103;BME280;61294;65.988;29.172;2023-07-08T00:38:49;98565.91;;;10.49;94.21
73103;BME280;61294;65.988;29.172;2023-07-08T00:41:32;98519.44;;;10.37;95.30
73103;BME280;61294;65.988;29.172;2023-07-08T00:43:59;98549.19;;;10.51;94.62
73103;BME280;61294;65.988;29.172;2023-07-08T00:51:37;98538.75;;;10.39;95.73
73103;BME280;61294;65.988;29.172;2023-07-08T00:54:18;98547.38;;;10.61;95.45
73103;BME280;61294;65.988;29.172;2023-07-08T00:57:04;98555.38;;;10.49;95.13
73103;BME280;61294;65.988;29.172;2023-07-08T00:59:33;98561.53;;;10.42;95.57
73103;BME280;61294;65.988;29.172;2023-07-08T01:02:05;98527.28;;;10.42;95.97
73103;BME280;61294;65.988;29.172;2023-07-08T01:04:39;98529.88;;;10.54;95.20
73103;BME280;61294;65.988;29.172;2023-07-08T01:07:09;98559.59;;;10.75;95.31
73103;BME280;61294;65.988;29.172;2023-07-08T01:09:46;98531.66;;;10.50;96.21
73103;BME280;61294;65.988;29.172;2023-07-08T01:12:16;98538.69;;;10.48;95.77
73103;BME280;61294;65.988;29.172;2023-07-08T01:14:55;98535.19;;;10.48;95.98
73103;BME280;61294;65.988;29.172;2023-07-08T01:17:24;98525.50;;;10.48;97.10
73103;BME280;61294;65.988;29.172;2023-07-08T01:19:53;98542.09;;;10.64;95.82
73103;BME280;61294;65.988;29.172;2023-07-08T01:25:51;98542.09;;;10.61;97.11
73103;BME280;61294;65.988;29.172;2023-07-08T01:28:45;98528.84;;;10.74;97.12
73103;BME280;61294;65.988;29.172;2023-07-08T01:31:23;98490.41;;;10.48;96.34
73103;BME280;61294;65.988;29.172;2023-07-08T01:33:52;98519.28;;;10.62;97.22
73103;BME280;61294;65.988;29.172;2023-07-08T01:36:21;98503.53;;;10.54;96.92
73103;BME280;61294;65.988;29.172;2023-07-08T01:38:47;98513.09;;;10.66;97.39
73103;BME280;61294;65.988;29.172;2023-07-08T01:41:15;98506.94;;;10.67;96.72
73103;BME280;61294;65.988;29.172;2023-07-08T01:43:42;98541.97;;;10.81;97.72
73103;BME280;61294;65.988;29.172;2023-07-08T01:46:20;98548.91;;;10.95;96.86
73103;BME280;61294;65.988;29.172;2023-07-08T01:48:52;98540.97;;;10.99;96.40
73103;BME280;61294;65.988;29.172;2023-07-08T01:51:22;98549.81;;;10.91;96.94
73103;BME280;61294;65.988;29.172;2023-07-08T01:53:48;98498.22;;;10.63;96.58
73103;BME280;61294;65.988;29.172;2023-07-08T01:56:17;98534.06;;;10.81;96.66
73103;BME280;61294;65.988;29.172;2023-07-08T01:58:43;98525.34;;;10.75;96.40
73103;BME280;61294;65.988;29.172;2023-07-08T02:01:09;98529.69;;;10.77;96.73
73103;BME280;61294;65.988;29.172;2023-07-08T02:03:35;98543.72;;;10.84;96.87
73103;BME280;61294;65.988;29.172;2023-07-08T02:06:12;98573.38;;;11.11;96.83
73103;BME280;61294;65.988;29.172;2023-07-08T02:08:40;98506.06;;;10.68;97.28
73103;BME280;61294;65.988;29.172;2023-07-08T02:11:16;98549.75;;;10.98;96.84
73103;BME280;61294;65.988;29.172;2023-07-08T02:13:42;98528.78;;;10.86;97.27
73103;BME280;61294;65.988;29.172;2023-07-08T02:16:18;98526.19;;;10.78;97.90
73103;BME280;61294;65.988;29.172;2023-07-08T02:19:14;98531.41;;;10.86;97.70
73103;BME280;61294;65.988;29.172;2023-07-08T02:21:50;98526.13;;;10.87;97.01
73103;BME280;61294;65.988;29.172;2023-07-08T02:24:19;98546.19;;;11.02;97.46
73103;BME280;61294;65.988;29.172;2023-07-08T02:26:51;98533.91;;;11.00;97.04
73103;BME280;61294;65.988;29.172;2023-07-08T02:29:17;98517.34;;;10.85;96.84
73103;BME280;61294;65.988;29.172;2023-07-08T02:31:43;98507.69;;;10.84;97.90
73103;BME280;61294;65.988;29.172;2023-07-08T02:34:09;98522.50;;;10.99;98.18
73103;BME280;61294;65.988;29.172;2023-07-08T02:36:38;98546.09;;;11.15;98.05
73103;BME280;61294;65.988;29.172;2023-07-08T02:39:04;98545.09;;;11.28;98.19
73103;BME280;61294;65.988;29.172;2023-07-08T02:41:31;98527.59;;;11.19;98.22
73103;BME280;61294;65.988;29.172;2023-07-08T02:43:57;98525.03;;;11.13;97.50
73103;BME280;61294;65.988;29.172;2023-07-08T02:46:23;98512.69;;;11.15;98.54
73103;BME280;61294;65.988;29.172;2023-07-08T02:48:48;98524.09;;;11.19;98.25
73103;BME280;61294;65.988;29.172;2023-07-08T02:51:14;98513.50;;;11.25;98.50
73103;BME280;61294;65.988;29.172;2023-07-08T02:53:43;98540.50;;;11.50;97.50
73103;BME280;61294;65.988;29.172;2023-07-08T02:56:08;98514.25;;;11.36;97.77
73103;BME280;61294;65.988;29.172;2023-07-08T02:58:34;98563.28;;;11.59;97.36
73103;BME280;61294;65.988;29.172;2023-07-08T03:01:01;98561.47;;;11.61;97.63
73103;BME280;61294;65.988;29.172;2023-07-08T03:03:27;98556.09;;;11.73;97.43
73103;BME280;61294;65.988;29.172;2023-07-08T03:06:01;98511.44;;;11.55;97.27
73103;BME280;61294;65.988;29.172;2023-07-08T03:08:28;98517.50;;;11.63;96.62
73103;BME280;61294;65.988;29.172;2023-07-08T03:11:00;98564.84;;;11.79;96.94
73103;BME280;61294;65.988;29.172;2023-07-08T03:13:27;98531.63;;;11.59;97.38
73103;BME280;61294;65.988;29.172;2023-07-08T03:15:54;98553.34;;;11.81;97.07
73103;BME280;61294;65.988;29.172;2023-07-08T03:18:24;98569.06;;;11.95;96.61
73103;BME280;61294;65.988;29.172;2023-07-08T03:20:53;98544.50;;;11.85;96.45
73103;BME280;61294;65.988;29.172;2023-07-08T03:23:24;98536.63;;;11.82;96.05
73103;BME280;61294;65.988;29.172;2023-07-08T03:25:51;98574.31;;;11.98;96.45
73103;BME280;61294;65.988;29.172;2023-07-08T03:28:17;98542.00;;;11.74;96.75
73103;BME280;61294;65.988;29.172;2023-07-08T03:30:44;98545.47;;;11.78;96.10
73103;BME280;61294;65.988;29.172;2023-07-08T03:33:11;98546.38;;;11.75;96.09
73103;BME280;61294;65.988;29.172;2023-07-08T03:35:37;98508.88;;;11.47;96.33
73103;BME280;61294;65.988;29.172;2023-07-08T03:38:04;98506.19;;;11.52;95.59
73103;BME280;61294;65.988;29.172;2023-07-08T03:40:30;98569.88;;;12.02;96.14
73103;BME280;61294;65.988;29.172;2023-07-08T03:42:56;98552.22;;;12.08;95.57
73103;BME280;61294;65.988;29.172;2023-07-08T03:45:25;98519.84;;;11.88;95.43
73103;BME280;61294;65.988;29.172;2023-07-08T03:47:51;98542.69;;;11.92;96.05
73103;BME280;61294;65.988;29.172;2023-07-08T03:50:23;98567.97;;;12.15;95.48
73103;BME280;61294;65.988;29.172;2023-07-08T03:52:51;98576.03;;;12.02;95.47
73103;BME280;61294;65.988;29.172;2023-07-08T03:55:17;98542.78;;;11.84;95.05
73103;BME280;61294;65.988;29.172;2023-07-08T03:57:49;98544.44;;;11.96;95.78
73103;BME280;61294;65.988;29.172;2023-07-08T04:00:17;98550.63;;;11.89;96.21
73103;BME280;61294;65.988;29.172;2023-07-08T04:02:44;98583.97;;;11.99;94.99
73103;BME280;61294;65.988;29.172;2023-07-08T04:05:15;98553.34;;;11.81;95.23
73103;BME280;61294;65.988;29.172;2023-07-08T04:07:41;98582.28;;;11.92;95.94
73103;BME280;61294;65.988;29.172;2023-07-08T04:10:08;98584.06;;;11.91;95.33
73103;BME280;61294;65.988;29.172;2023-07-08T04:12:34;98548.03;;;11.83;94.97
73103;BME280;61294;65.988;29.172;2023-07-08T04:15:00;98554.22;;;11.83;94.70
73103;BME280;61294;65.988;29.172;2023-07-08T04:17:26;98588.34;;;12.03;94.91
73103;BME280;61294;65.988;29.172;2023-07-08T04:19:52;98581.31;;;12.01;95.86
73103;BME280;61294;65.988;29.172;2023-07-08T04:22:17;98525.34;;;11.69;96.13
73103;BME280;61294;65.988;29.172;2023-07-08T04:24:43;98590.06;;;12.06;96.33
73103;BME280;61294;65.988;29.172;2023-07-08T04:27:14;98573.50;;;11.87;96.90
73103;BME280;61294;65.988;29.172;2023-07-08T04:29:41;98592.00;;;11.85;96.79
73103;BME280;61294;65.988;29.172;2023-07-08T04:32:07;98526.38;;;11.56;96.07
73103;BME280;61294;65.988;29.172;2023-07-08T04:34:33;98590.25;;;11.86;96.22
73103;BME280;61294;65.988;29.172;2023-07-08T04:36:58;98584.09;;;11.85;95.73
73103;BME280;61294;65.988;29.172;2023-07-08T04:39:24;98586.69;;;11.88;95.77
73103;BME280;61294;65.988;29.172;2023-07-08T04:41:50;98592.81;;;11.97;95.74
73103;BME280;61294;65.988;29.172;2023-07-08T04:44:15;98535.84;;;11.72;96.28
73103;BME280;61294;65.988;29.172;2023-07-08T04:46:53;98597.13;;;12.02;95.34
73103;BME280;61294;65.988;29.172;2023-07-08T04:49:21;98578.78;;;11.90;95.63
73103;BME280;61294;65.988;29.172;2023-07-08T04:51:47;98564.78;;;11.83;95.39
73103;BME280;61294;65.988;29.172;2023-07-08T04:54:13;98568.22;;;11.90;95.40
73103;BME280;61294;65.988;29.172;2023-07-08T04:56:49;98598.97;;;11.97;95.44
73103;BME280;61294;65.988;29.172;2023-07-08T04:59:18;98584.03;;;11.93;95.71
73103;BME280;61294;65.988;29.172;2023-07-08T05:01:44;98573.44;;;11.98;95.67
73103;BME280;61294;65.988;29.172;2023-07-08T05:04:13;98604.88;;;12.18;95.26
73103;BME280;61294;65.988;29.172;2023-07-08T05:06:39;98606.59;;;12.23;94.99
73103;BME280;61294;65.988;29.172;2023-07-08T05:09:06;98568.06;;;12.05;94.65
73103;BME280;61294;65.988;29.172;2023-07-08T05:11:32;98539.16;;;11.93;94.17
73103;BME280;61294;65.988;29.172;2023-07-08T05:13:58;98535.50;;;12.05;94.00
73103;BME280;61294;65.988;29.172;2023-07-08T05:16:24;98604.47;;;12.52;93.82
73103;BME280;61294;65.988;29.172;2023-07-08T05:18:50;98533.47;;;12.25;92.94
73103;BME280;61294;65.988;29.172;2023-07-08T05:21:17;98572.75;;;12.52;92.31
73103;BME280;61294;65.988;29.172;2023-07-08T05:23:44;98611.13;;;12.79;92.22
73103;BME280;61294;65.988;29.172;2023-07-08T05:26:10;98596.84;;;12.91;91.10
73103;BME280;61294;65.988;29.172;2023-07-08T05:28:36;98538.22;;;12.66;90.66
73103;BME280;61294;65.988;29.172;2023-07-08T05:31:02;98549.53;;;12.75;89.88
73103;BME280;61294;65.988;29.172;2023-07-08T05:33:29;98582.03;;;12.81;90.62
73103;BME280;61294;65.988;29.172;2023-07-08T05:35:56;98609.59;;;12.64;90.84
73103;BME280;61294;65.988;29.172;2023-07-08T05:38:23;98612.34;;;12.55;91.79
73103;BME280;61294;65.988;29.172;2023-07-08T05:40:50;98616.59;;;12.65;91.94
73103;BME280;61294;65.988;29.172;2023-07-08T05:43:17;98555.66;;;12.12;92.11
73103;BME280;61294;65.988;29.172;2023-07-08T05:45:43;98584.41;;;12.35;93.68
73103;BME280;61294;65.988;29.172;2023-07-08T05:48:09;98555.56;;;12.20;94.76
73103;BME280;61294;65.988;29.172;2023-07-08T05:50:35;98609.59;;;12.64;94.43
73103;BME280;61294;65.988;29.172;2023-07-08T05:53:01;98605.00;;;12.78;93.99
73103;BME280;61294;65.988;29.172;2023-07-08T05:55:26;98600.59;;;12.77;92.62
73103;BME280;61294;65.988;29.172;2023-07-08T05:57:52;98588.13;;;12.86;92.50
73103;BME280;61294;65.988;29.172;2023-07-08T06:00:18;98588.88;;;12.95;92.24
73103;BME280;61294;65.988;29.172;2023-07-08T06:02:44;98573.97;;;12.90;92.16
73103;BME280;61294;65.988;29.172;2023-07-08T06:05:09;98592.22;;;13.05;90.40
73103;BME280;61294;65.988;29.172;2023-07-08T06:07:35;98578.47;;;12.83;91.32
73103;BME280;61294;65.988;29.172;2023-07-08T06:10:01;98622.31;;;12.98;91.86
73103;BME280;61294;65.988;29.172;2023-07-08T06:12:27;98620.88;;;12.77;92.07
73103;BME280;61294;65.988;29.172;2023-07-08T06:14:53;98564.13;;;12.39;93.07
73103;BME280;61294;65.988;29.172;2023-07-08T06:17:18;98626.03;;;12.85;92.89
73103;BME280;61294;65.988;29.172;2023-07-08T06:19:44;98566.47;;;12.60;93.92
73103;BME280;61294;65.988;29.172;2023-07-08T06:22:10;98630.28;;;12.95;93.09
73103;BME280;61294;65.988;29.172;2023-07-08T06:24:36;98629.25;;;13.05;93.78
73103;BME280;61294;65.988;29.172;2023-07-08T06:27:02;98635.13;;;13.26;93.18
73103;BME280;61294;65.988;29.172;2023-07-08T06:29:28;98628.09;;;13.23;92.32
73103;BME280;61294;65.988;29.172;2023-07-08T06:31:53;98569.31;;;13.06;92.40
73103;BME280;61294;65.988;29.172;2023-07-08T06:34:19;98628.84;;;13.33;91.27
73103;BME280;61294;65.988;29.172;2023-07-08T06:36:49;98631.66;;;13.21;90.68
73103;BME280;61294;65.988;29.172;2023-07-08T06:39:15;98625.69;;;13.08;91.39
73103;BME280;61294;65.988;29.172;2023-07-08T06:41:42;98583.88;;;12.74;90.60
73103;BME280;61294;65.988;29.172;2023-07-08T06:44:08;98586.34;;;12.88;91.54
73103;BME280;61294;65.988;29.172;2023-07-08T06:46:34;98634.97;;;13.38;91.40
73103;BME280;61294;65.988;29.172;2023-07-08T06:49:00;98576.84;;;13.30;90.92
73103;BME280;61294;65.988;29.172;2023-07-08T06:51:26;98631.09;;;13.58;90.13
73103;BME280;61294;65.988;29.172;2023-07-08T06:53:52;98588.44;;;13.23;90.36
73103;BME280;61294;65.988;29.172;2023-07-08T06:56:18;98632.06;;;13.52;89.16
73103;BME280;61294;65.988;29.172;2023-07-08T06:58:43;98625.88;;;13.53;88.41
73103;BME280;61294;65.988;29.172;2023-07-08T07:01:09;98593.56;;;13.34;87.44
73103;BME280;61294;65.988;29.172;2023-07-08T07:03:35;98579.13;;;13.55;87.41
73103;BME280;61294;65.988;29.172;2023-07-08T07:06:01;98597.09;;;13.85;86.43
73103;BME280;61294;65.988;29.172;2023-07-08T07:08:27;98633.16;;;14.37;85.82
73103;BME280;61294;65.988;29.172;2023-07-08T07:10:52;98611.16;;;14.32;84.73
73103;BME280;61294;65.988;29.172;2023-07-08T07:13:18;98599.19;;;14.14;83.16
73103;BME280;61294;65.988;29.172;2023-07-08T07:15:44;98653.56;;;14.32;81.55
73103;BME280;61294;65.988;29.172;2023-07-08T07:18:10;98656.22;;;14.32;81.73
73103;BME280;61294;65.988;29.172;2023-07-08T07:20:37;98622.72;;;14.28;81.42
73103;BME280;61294;65.988;29.172;2023-07-08T07:23:03;98655.25;;;14.36;81.29
73103;BME280;61294;65.988;29.172;2023-07-08T07:25:29;98649.44;;;14.64;81.60
73103;BME280;61294;65.988;29.172;2023-07-08T07:27:54;98653.94;;;14.57;79.56
73103;BME280;61294;65.988;29.172;2023-07-08T07:30:20;98585.28;;;14.03;80.30
73103;BME280;61294;65.988;29.172;2023-07-08T07:32:46;98658.53;;;14.49;80.38
73103;BME280;61294;65.988;29.172;2023-07-08T07:35:13;98661.41;;;14.38;80.64
73103;BME280;61294;65.988;29.172;2023-07-08T07:37:41;98614.44;;;14.01;80.44
73103;BME280;61294;65.988;29.172;2023-07-08T07:40:09;98662.06;;;14.49;79.80
73103;BME280;61294;65.988;29.172;2023-07-08T07:42:39;98659.88;;;15.12;78.86
73103;BME280;61294;65.988;29.172;2023-07-08T07:45:05;98652.00;;;15.45;78.22
73103;BME280;61294;65.988;29.172;2023-07-08T07:47:31;98665.72;;;15.63;77.73
73103;BME280;61294;65.988;29.172;2023-07-08T07:49:57;98622.44;;;15.61;75.49
73103;BME280;61294;65.988;29.172;2023-07-08T07:52:24;98626.25;;;15.49;74.99
73103;BME280;61294;65.988;29.172;2023-07-08T07:54:54;98619.72;;;15.26;74.75
73103;BME280;61294;65.988;29.172;2023-07-08T07:57:21;98648.09;;;15.24;75.80
73103;BME280;61294;65.988;29.172;2023-07-08T07:59:47;98608.25;;;15.26;76.90
73103;BME280;61294;65.988;29.172;2023-07-08T08:02:15;98638.50;;;15.91;75.48
73103;BME280;61294;65.988;29.172;2023-07-08T08:04:40;98604.41;;;15.38;72.81
73103;BME280;61294;65.988;29.172;2023-07-08T08:07:06;98654.91;;;15.72;74.07
73103;BME280;61294;65.988;29.172;2023-07-08T08:09:32;98657.59;;;15.69;73.36
73103;BME280;61294;65.988;29.172;2023-07-08T08:11:58;98658.53;;;15.68;73.98
73103;BME280;61294;65.988;29.172;2023-07-08T08:14:24;98662.59;;;15.47;74.38
73103;BME280;61294;65.988;29.172;2023-07-08T08:16:50;98666.41;;;15.35;75.35
73103;BME280;61294;65.988;29.172;2023-07-08T08:19:16;98636.97;;;15.08;76.07
73103;BME280;61294;65.988;29.172;2023-07-08T08:21:41;98614.38;;;14.49;76.63
73103;BME280;61294;65.988;29.172;2023-07-08T08:24:07;98633.59;;;14.59;79.67
73103;BME280;61294;65.988;29.172;2023-07-08T08:26:33;98671.78;;;14.93;79.69
73103;BME280;61294;65.988;29.172;2023-07-08T08:28:58;98663.56;;;15.43;79.10
73103;BME280;61294;65.988;29.172;2023-07-08T08:31:24;98614.81;;;15.47;77.55
73103;BME280;61294;65.988;29.172;2023-07-08T08:33:53;98643.16;;;15.82;76.35
73103;BME280;61294;65.988;29.172;2023-07-08T08:36:19;98676.63;;;16.22;75.24
73103;BME280;61294;65.988;29.172;2023-07-08T08:38:46;98646.88;;;15.39;76.45
73103;BME280;61294;65.988;29.172;2023-07-08T08:41:14;98655.91;;;14.91;77.74
73103;BME280;61294;65.988;29.172;2023-07-08T08:43:41;98680.16;;;14.74;78.16
73103;BME280;61294;65.988;29.172;2023-07-08T08:46:27;98667.91;;;14.67;79.23
73103;BME280;61294;65.988;29.172;2023-07-08T08:51:33;98686.38;;;14.25;80.79
73103;BME280;61294;65.988;29.172;2023-07-08T08:53:59;98681.41;;;14.53;81.25
73103;BME280;61294;65.988;29.172;2023-07-08T08:56:34;98678.56;;;14.65;82.25
73103;BME280;61294;65.988;29.172;2023-07-08T08:59:33;98679.19;;;15.17;80.49
73103;BME280;61294;65.988;29.172;2023-07-08T09:02:25;98679.91;;;15.62;78.33
73103;BME280;61294;65.988;29.172;2023-07-08T09:04:54;98614.81;;;15.47;78.33
73103;BME280;61294;65.988;29.172;2023-07-08T09:07:21;98686.91;;;15.28;77.74
73103;BME280;61294;65.988;29.172;2023-07-08T09:09:59;98680.78;;;14.86;79.18
73103;BME280;61294;65.988;29.172;2023-07-08T09:12:27;98685.47;;;15.15;80.47
73103;BME280;61294;65.988;29.172;2023-07-08T09:14:55;98694.47;;;15.06;78.28
73103;BME280;61294;65.988;29.172;2023-07-08T09:17:32;98691.88;;;15.03;79.38
73103;BME280;61294;65.988;29.172;2023-07-08T09:25:17;98693.69;;;15.40;77.30
73103;BME280;61294;65.988;29.172;2023-07-08T09:27:46;98694.47;;;15.45;78.02
73103;BME280;61294;65.988;29.172;2023-07-08T09:30:15;98646.03;;;15.35;78.85
73103;BME280;61294;65.988;29.172;2023-07-08T09:32:41;98700.34;;;15.96;77.72
73103;BME280;61294;65.988;29.172;2023-07-08T09:35:09;98665.75;;;15.97;75.94
73103;BME280;61294;65.988;29.172;2023-07-08T09:37:45;98689.50;;;16.05;74.95
73103;BME280;61294;65.988;29.172;2023-07-08T09:40:30;98692.22;;;16.02;74.67
73103;BME280;61294;65.988;29.172;2023-07-08T09:43:16;98679.28;;;16.22;74.57
73103;BME280;61294;65.988;29.172;2023-07-08T09:45:47;98634.22;;;15.85;74.82
73103;BME280;61294;65.988;29.172;2023-07-08T09:48:23;98697.97;;;16.19;74.54
73103;BME280;61294;65.988;29.172;2023-07-08T09:50:52;98693.13;;;15.63;73.93
73103;BME280;61294;65.988;29.172;2023-07-08T09:53:18;98689.59;;;15.27;75.26
73103;BME280;61294;65.988;29.172;2023-07-08T09:55:45;98712.28;;;15.40;76.13
73103;BME280;61294;65.988;29.172;2023-07-08T09:58:35;98667.31;;;15.34;75.02
73103;BME280;61294;65.988;29.172;2023-07-08T10:01:10;98680.16;;;15.88;75.31
73103;BME280;61294;65.988;29.172;2023-07-08T10:03:38;98637.56;;;15.92;74.07
73103;BME280;61294;65.988;29.172;2023-07-08T10:06:24;98646.25;;;15.64;73.79
73103;BME280;61294;65.988;29.172;2023-07-08T10:08:54;98703.38;;;15.80;74.55
73103;BME280;61294;65.988;29.172;2023-07-08T10:11:29;98714.13;;;16.45;72.60
73103;BME280;61294;65.988;29.172;2023-07-08T10:14:11;98680.09;;;16.87;69.76
73103;BME280;61294;65.988;29.172;2023-07-08T10:16:42;98699.47;;;18.06;68.00
73103;BME280;61294;65.988;29.172;2023-07-08T10:19:17;98698.25;;;23.49;53.06
73103;BME280;61294;65.988;29.172;2023-07-08T10:22:00;98686.66;;;26.63;44.11
73103;BME280;61294;65.988;29.172;2023-07-08T10:24:51;98679.44;;;31.50;36.15
73103;BME280;61294;65.988;29.172;2023-07-08T10:27:40;98690.53;;;28.09;36.84
73103;BME280;61294;65.988;29.172;2023-07-08T10:30:38;98690.75;;;31.46;33.36
73103;BME280;61294;65.988;29.172;2023-07-08T10:33:29;98695.06;;;26.45;36.72
73103;BME280;61294;65.988;29.172;2023-07-08T10:36:10;98663.72;;;21.17;47.32
73103;BME280;61294;65.988;29.172;2023-07-08T10:39:12;98679.84;;;18.83;55.26
73103;BME280;61294;65.988;29.172;2023-07-08T10:42:04;98713.16;;;17.67;63.33
73103;BME280;61294;65.988;29.172;2023-07-08T10:48:24;98716.09;;;17.31;69.20
73103;BME280;61294;65.988;29.172;2023-07-08T10:54:01;98698.66;;;17.20;71.44
73103;BME280;61294;65.988;29.172;2023-07-08T10:56:45;98713.84;;;17.17;71.41
73103;BME280;61294;65.988;29.172;2023-07-08T11:05:17;98719.47;;;18.44;70.37
73103;BME280;61294;65.988;29.172;2023-07-08T11:07:54;98736.56;;;18.39;68.54
73103;BME280;61294;65.988;29.172;2023-07-08T11:10:27;98726.97;;;18.58;67.73
73103;BME280;61294;65.988;29.172;2023-07-08T11:12:59;98719.78;;;18.60;66.53
73103;BME280;61294;65.988;29.172;2023-07-08T11:15:51;98735.69;;;19.58;65.55
73103;BME280;61294;65.988;29.172;2023-07-08T11:21:12;98723.41;;;21.76;55.71
73103;BME280;61294;65.988;29.172;2023-07-08T11:23:48;98709.69;;;22.54;55.21
73103;BME280;61294;65.988;29.172;2023-07-08T11:26:23;98736.72;;;23.66;51.29
73103;BME280;61294;65.988;29.172;2023-07-08T11:28:56;98729.47;;;24.75;46.45
73103;BME280;61294;65.988;29.172;2023-07-08T11:31:23;98703.28;;;24.77;44.92
73103;BME280;61294;65.988;29.172;2023-07-08T11:33:52;98718.28;;;24.22;46.90
73103;BME280;61294;65.988;29.172;2023-07-08T11:36:20;98717.06;;;23.33;47.13
73103;BME280;61294;65.988;29.172;2023-07-08T11:38:50;98727.25;;;21.70;51.76
73103;BME280;61294;65.988;29.172;2023-07-08T11:41:19;98696.97;;;19.69;54.14
73103;BME280;61294;65.988;29.172;2023-07-08T11:43:54;98708.88;;;18.67;58.56
73103;BME280;61294;65.988;29.172;2023-07-08T11:46:26;98699.59;;;18.53;60.51
73103;BME280;61294;65.988;29.172;2023-07-08T11:49:13;98736.75;;;18.83;60.66
73103;BME280;61294;65.988;29.172;2023-07-08T11:51:44;98705.31;;;20.04;57.05
73103;BME280;61294;65.988;29.172;2023-07-08T11:57:00;98730.50;;;20.61;52.71
73103;BME280;61294;65.988;29.172;2023-07-08T11:59:32;98707.50;;;21.16;51.94
73103;BME280;61294;65.988;29.172;2023-07-08T12:02:11;98697.09;;;27.69;41.67
73103;BME280;61294;65.988;29.172;2023-07-08T12:04:57;98711.50;;;31.37;33.33
73103;BME280;61294;65.988;29.172;2023-07-08T12:07:36;98724.88;;;31.19;33.04
73103;BME280;61294;65.988;29.172;2023-07-08T12:10:27;98717.09;;;26.65;36.57
73103;BME280;61294;65.988;29.172;2023-07-08T12:12:53;98719.16;;;26.48;38.69
73103;BME280;61294;65.988;29.172;2023-07-08T12:15:28;98719.78;;;27.55;37.95
73103;BME280;61294;65.988;29.172;2023-07-08T12:18:00;98727.22;;;27.88;36.16
73103;BME280;61294;65.988;29.172;2023-07-08T12:20:35;98718.69;;;32.18;31.92
73103;BME280;61294;65.988;29.172;2023-07-08T12:23:07;98690.13;;;31.32;32.13
73103;BME280;61294;65.988;29.172;2023-07-08T12:25:35;98720.44;;;29.01;34.37
73103;BME280;61294;65.988;29.172;2023-07-08T12:28:02;98712.00;;;27.37;36.43
73103;BME280;61294;65.988;29.172;2023-07-08T12:30:29;98714.97;;;24.92;37.91
73103;BME280;61294;65.988;29.172;2023-07-08T12:32:56;98683.00;;;23.18;41.06
73103;BME280;61294;65.988;29.172;2023-07-08T12:35:32;98708.50;;;25.38;40.15
73103;BME280;61294;65.988;29.172;2023-07-08T12:38:02;98708.00;;;29.43;34.58
73103;BME280;61294;65.988;29.172;2023-07-08T12:40:29;98703.47;;;28.40;34.46
73103;BME280;61294;65.988;29.172;2023-07-08T12:42:59;98695.00;;;29.58;33.46
73103;BME280;61294;65.988;29.172;2023-07-08T12:45:30;98699.19;;;32.23;29.46
73103;BME280;61294;65.988;29.172;2023-07-08T12:47:58;98707.06;;;31.05;29.54
73103;BME280;61294;65.988;29.172;2023-07-08T12:50:23;98699.75;;;31.87;28.16
73103;BME280;61294;65.988;29.172;2023-07-08T12:52:49;98710.34;;;28.33;33.67
73103;BME280;61294;65.988;29.172;2023-07-08T12:55:15;98715.34;;;25.98;33.94
73103;BME280;61294;65.988;29.172;2023-07-08T12:57:45;98706.63;;;27.12;33.49
73103;BME280;61294;65.988;29.172;2023-07-08T13:02:47;98688.53;;;35.22;26.40
73103;BME280;61294;65.988;29.172;2023-07-08T13:05:15;98699.75;;;32.26;26.57
73103;BME280;61294;65.988;29.172;2023-07-08T13:07:42;98697.56;;;28.58;32.11
73103;BME280;61294;65.988;29.172;2023-07-08T13:10:18;98681.59;;;26.84;35.21
73103;BME280;61294;65.988;29.172;2023-07-08T13:12:46;98672.63;;;24.65;36.08
73103;BME280;61294;65.988;29.172;2023-07-08T13:15:21;98703.09;;;22.93;38.64
73103;BME280;61294;65.988;29.172;2023-07-08T13:17:48;98706.44;;;22.30;41.76
73103;BME280;61294;65.988;29.172;2023-07-08T13:20:15;98716.84;;;21.45;41.79
73103;BME280;61294;65.988;29.172;2023-07-08T13:22:46;98702.91;;;21.19;43.42
73103;BME280;61294;65.988;29.172;2023-07-08T13:25:17;98696.75;;;20.38;44.54
73103;BME280;61294;65.988;29.172;2023-07-08T13:27:57;98704.63;;;20.41;46.66
73103;BME280;61294;65.988;29.172;2023-07-08T13:30:30;98717.31;;;20.57;44.61
73103;BME280;61294;65.988;29.172;2023-07-08T13:32:59;98713.59;;;21.94;44.81
73103;BME280;61294;65.988;29.172;2023-07-08T13:35:28;98700.53;;;26.71;37.73
73103;BME280;61294;65.988;29.172;2023-07-08T13:38:01;98682.47;;;29.46;31.52
73103;BME280;61294;65.988;29.172;2023-07-08T13:40:30;98698.50;;;27.99;33.04
73103;BME280;61294;65.988;29.172;2023-07-08T13:42:58;98692.44;;;27.71;33.14
73103;BME280;61294;65.988;29.172;2023-07-08T13:45:30;98699.50;;;30.03;29.25